NOVITA': Servizio sperimentale per la consultazione dei dati spaziali di precipitazioni in tempo reale via web-GIS. Clicca per accedere
LEGENDA
Aree di allertamento per la Regione Siciliana
Aree d'allertamento
A
B
C
D
E
F
G
H
I
Data: Data ed Ora solare di acquisizione del dato in campo, nel formato GG/MM/AAAA HH.MM
Temperatura: Temperatura ambiente in °C
Pioggia: Pioggia caduta nell'ultima ora espressa in mm
Pioggia3: Pioggia caduta nell'ultime 3 ore espressa in mm
Pioggia24: Pioggia caduta nell'ultime 24 ore espressa in mm
Pioggia48: Pioggia caduta nell'ultime 48 ore espressa in mm
Pioggia72: Pioggia caduta nell'ultime 72 ore espressa in mm
Latitudine, Longitudine: Coordinate nel formato Gradi.Primi.Secondi / Datum WGS84
NOTA: Questo elaborato viene prodotto "al volo" su richiesta dell'utente e non subisce alcuna valutazione preliminare di congruenza

AREA DI ALLERTAMENTO G

 
Stazione: AUGUSTA
ID: 109 Latitudine: 37.13.37N Logitudine: 15.12.31E Località: AUGUSTA (SR) Bacino: Bacini minori fra MULINELLO e LENTINI
Data Temperatura Pioggia Pioggia3 Pioggia24 Pioggia48 Pioggia72
17-11-2018 12:00 16.2 0.0 0.0 48.0 48.0 48.1
17-11-2018 12:30 15.7 0.0 0.0 48.0 48.0 48.1
17-11-2018 13:00 16.1 0.0 0.0 48.0 48.0 48.1
17-11-2018 13:30 16.2 0.0 0.0 48.0 48.0 48.1
17-11-2018 14:00 16.0 0.0 0.0 48.0 48.0 48.1
17-11-2018 14:30 16.1 0.0 0.0 47.3 48.0 48.1
17-11-2018 15:00 16.0 0.0 0.0 47.1 48.0 48.1
17-11-2018 15:30 15.8 0.0 0.0 28.0 48.0 48.1
17-11-2018 16:00 15.7 0.0 0.0 13.5 48.0 48.1
 
Stazione: BUCCHERI
ID: 085 Latitudine: 37.07.35N Logitudine: 14.50.45E Località: BUCCHERI (SR) Bacino: LENTINI
Data Temperatura Pioggia Pioggia3 Pioggia24 Pioggia48 Pioggia72
17-11-2018 12:00 9.6 0.0 0.0 13.1 19.6 19.7
17-11-2018 12:30 9.4 0.0 0.0 12.3 19.6 19.7
17-11-2018 13:00 9.4 0.0 0.0 9.4 19.6 19.7
17-11-2018 13:30 9.4 0.0 0.0 6.5 19.6 19.7
17-11-2018 14:00 9.2 0.0 0.0 5.3 19.6 19.7
17-11-2018 14:30 9.4 0.0 0.0 5.3 19.6 19.7
17-11-2018 15:00 9.4 0.0 0.0 5.3 19.6 19.7
17-11-2018 15:30 9.5 0.0 0.0 5.3 19.6 19.7
17-11-2018 16:00 9.5 0.0 0.0 5.3 19.6 19.7
 
Stazione: CANICATTINI BAGNI
ID: 154 Latitudine: 37.01.45N Logitudine: 15.03.23E Località: CANICATTINI BAGNI (SR) Bacino: ANAPO
Data Temperatura Pioggia Pioggia3 Pioggia24 Pioggia48 Pioggia72
17-11-2018 12:00 11.9 0.1 2.6 21.8 24.6 24.8
17-11-2018 15:00 12.2 0.1 0.2 16.0 24.6 24.9
 
Stazione: FRANCOFONTE
ID: 110 Latitudine: 37.13.20N Logitudine: 14.52.00E Località: FRANCOFONTE (SR) Bacino: LENTINI
Data Temperatura Pioggia Pioggia3 Pioggia24 Pioggia48 Pioggia72
17-11-2018 12:00 12.0 0.0 0.0 4.4 4.6 4.8
17-11-2018 12:30 12.0 0.0 0.0 4.2 4.6 4.8
17-11-2018 13:00 11.8 0.0 0.0 4.2 4.6 4.8
17-11-2018 13:30 11.9 0.0 0.0 4.2 4.6 4.8
17-11-2018 14:00 12.1 0.0 0.0 4.2 4.6 4.8
17-11-2018 14:30 12.0 0.0 0.0 4.2 4.6 4.8
17-11-2018 15:00 11.9 0.0 0.0 4.2 4.6 4.8
17-11-2018 15:30 11.9 0.0 0.0 4.2 4.6 4.8
17-11-2018 16:00 11.8 0.0 0.0 4.2 4.6 4.8
 
Stazione: MILITELLO VAL DI CATANIA
ID: 211 Latitudine: 37.16.29N Logitudine: 14.47.38E Località: MILITELLO IN VAL DI CATANIA (CT) Bacino: LENTINI
Data Temperatura Pioggia Pioggia3 Pioggia24 Pioggia48 Pioggia72
17-11-2018 12:00 12.5 0.0 0.1 2.5 3.3 3.4
17-11-2018 12:30 12.7 0.0 0.1 2.5 3.3 3.4
17-11-2018 13:00 12.8 0.0 0.0 2.5 3.3 3.4
17-11-2018 13:30 12.7 0.0 0.0 2.5 3.3 3.4
17-11-2018 14:00 12.3 0.0 0.0 2.5 3.3 3.4
17-11-2018 14:30 12.0 0.0 0.0 2.5 3.3 3.4
17-11-2018 15:00 11.7 0.1 0.1 2.6 3.4 3.5
17-11-2018 15:30 11.5 0.1 0.1 2.6 3.4 3.5
17-11-2018 16:00 11.5 0.1 0.1 2.5 3.4 3.5
 
Stazione: NOTO
ID: 260 Latitudine: Logitudine: Località: NOTO (SR) Bacino: Bacini minori fra TELLARO e NOTO
Data Temperatura Pioggia Pioggia3 Pioggia24 Pioggia48 Pioggia72
17-11-2018 12:00 18.0 0.0 0.0 22.2 24.0 24.4
17-11-2018 12:30 17.5 0.0 0.0 22.2 24.0 24.4
17-11-2018 13:00 17.3 0.0 0.0 22.1 24.0 24.4
17-11-2018 13:30 17.0 0.0 0.0 22.0 24.0 24.4
17-11-2018 14:00 16.8 0.0 0.0 21.9 24.0 24.4
17-11-2018 14:30 16.6 0.0 0.0 21.8 24.0 24.4
17-11-2018 15:00 16.4 0.0 0.0 21.8 24.0 24.4
17-11-2018 15:30 16.2 0.0 0.0 21.8 24.0 24.4
17-11-2018 16:00 15.8 0.0 0.0 21.8 24.0 24.4
 
Stazione: PACHINO
ID: 105 Latitudine: 36.44.00N Logitudine: 15.06.33E Località: PACHINO (SR) Bacino: Bacini minori fra Capo Passero e TELLARO
Data Temperatura Pioggia Pioggia3 Pioggia24 Pioggia48 Pioggia72
17-11-2018 12:00 16.9 0.0 0.2 10.9 10.9 10.9
17-11-2018 15:00 16.6 0.0 0.0 10.5 10.9 10.9
 
Stazione: SIRACUSA
ID: 108 Latitudine: 37.04.27N Logitudine: 15.16.50E Località: SIRACUSA (SR) Bacino: Bacini minori fra ANAPO e CANTERA
Data Temperatura Pioggia Pioggia3 Pioggia24 Pioggia48 Pioggia72
17-11-2018 12:00 18.1 0.0 0.0 44.1 44.9 45.0
17-11-2018 12:30 17.6 0.0 0.0 44.1 44.9 45.0
17-11-2018 13:00 17.8 0.0 0.0 44.1 44.9 45.0
17-11-2018 13:30 17.5 0.0 0.0 44.0 44.9 45.0
17-11-2018 14:00 17.4 0.0 0.0 43.6 44.9 45.0
17-11-2018 14:30 17.2 0.0 0.0 43.6 44.9 45.0
17-11-2018 15:00 17.1 0.0 0.0 43.6 44.9 45.0
17-11-2018 15:30 17.0 0.0 0.0 43.6 44.9 45.0
17-11-2018 16:00 16.9 0.0 0.0 43.6 44.9 45.0